VAM | Vabird-VBD

Virtual Vabird! Aerolínea Virtual de habla hispana, desde 2011




 INFORMACIÓN METAR y TAF
METAR FOR LGKR
ADDS - METARS form results

(0658 UTC 29 October 2020)
Data provider http://aviationweather.gov/metar/data/
 
METAR text: LGKR 290650Z 00000KT 9999 FEW020 15/13 Q1014 NOSIG
Conditions at: LGKR (IOANNIS KAPODIST, GR) observed 0650 UTC 29 October 2020
Temperature: 15.0°C (59°F)
Dewpoint: 13.0°C (55°F) [RH = 88%]
Pressure (altimeter): 29.94 inches Hg (1014.0 mb)
Winds: calm
Visibility: 6 or more miles (10+ km)
Ceiling: at least 12,000 feet AGL
Clouds: few clouds at 2000 feet AGL
Weather: no significant weather observed at this time

METAR text: LGKR 290620Z VRB02KT CAVOK 13/09 Q1014 NOSIG
Conditions at: LGKR (IOANNIS KAPODIST, GR) observed 0620 UTC 29 October 2020
Temperature: 13.0°C (55°F)
Dewpoint: 9.0°C (48°F) [RH = 77%]
Pressure (altimeter): 29.94 inches Hg (1014.0 mb)
Winds: variable direction winds at 2 MPH (2 knots; 1.0 m/s)
Visibility: 6 or more miles (10+ km)
Ceiling: ceiling and visibility are OK
Clouds: unknown
Weather: no significant weather observed at this time

Forecast for: LGKR (IOANNIS KAPODIST, GR)
Text: TAF LGKR 290500Z 2906/3006 VRB05KT 9999 FEW020
Forecast period: 0600 to 0900 UTC 29 October 2020
Forecast type: FROM: standard forecast or significant change
Winds: variable direction winds at 6 MPH (5 knots; 2.6 m/s)
Visibility: 6 or more miles (10+ km)
Ceiling: at least 12,000 feet AGL
Clouds: few clouds at 2000 feet AGL
Weather: no significant weather forecast for this period
Text: BECMG 2909/2911 32012KT
Forecast period: 0900 UTC 29 October 2020 to 0600 UTC 30 October 2020
Forecast type: BECOMING: Conditions expected to become as follows by 1100 UTC 29 October 2020
Winds: from the NW (320 degrees) at 14 MPH (12 knots; 6.2 m/s)
Visibility: 6 or more miles (10+ km)
Ceiling: at least 12,000 feet AGL
Clouds: few clouds at 2000 feet AGL
Weather: no significant weather forecast for this period

 MAPA DE AEROPUERTO

 INFORMACIÓN DE PISTA